sensor_id;sensor_type;location;lat;lon;timestamp;temperature;humidity
74364;DHT22;62797;49.740;10.154;2023-12-07T00:01:02;2.10;73.60
74364;DHT22;62797;49.740;10.154;2023-12-07T00:03:27;2.10;73.50
74364;DHT22;62797;49.740;10.154;2023-12-07T00:05:53;2.10;73.20
74364;DHT22;62797;49.740;10.154;2023-12-07T00:08:19;2.10;72.50
74364;DHT22;62797;49.740;10.154;2023-12-07T00:10:45;2.10;73.20
74364;DHT22;62797;49.740;10.154;2023-12-07T00:13:10;2.10;73.50
74364;DHT22;62797;49.740;10.154;2023-12-07T00:15:36;2.10;73.10
74364;DHT22;62797;49.740;10.154;2023-12-07T00:18:02;2.10;72.90
74364;DHT22;62797;49.740;10.154;2023-12-07T00:20:29;2.10;72.90
74364;DHT22;62797;49.740;10.154;2023-12-07T00:22:54;2.10;73.00
74364;DHT22;62797;49.740;10.154;2023-12-07T00:25:21;2.10;73.10
74364;DHT22;62797;49.740;10.154;2023-12-07T00:27:47;2.00;73.20
74364;DHT22;62797;49.740;10.154;2023-12-07T00:30:13;2.00;73.30
74364;DHT22;62797;49.740;10.154;2023-12-07T00:32:39;1.90;73.20
74364;DHT22;62797;49.740;10.154;2023-12-07T00:35:09;1.90;73.40
74364;DHT22;62797;49.740;10.154;2023-12-07T00:37:34;1.90;73.70
74364;DHT22;62797;49.740;10.154;2023-12-07T00:40:00;1.90;73.20
74364;DHT22;62797;49.740;10.154;2023-12-07T00:42:27;2.00;73.40
74364;DHT22;62797;49.740;10.154;2023-12-07T00:44:53;2.00;73.00
74364;DHT22;62797;49.740;10.154;2023-12-07T00:47:19;2.00;73.10
74364;DHT22;62797;49.740;10.154;2023-12-07T00:49:44;2.00;72.80
74364;DHT22;62797;49.740;10.154;2023-12-07T00:52:10;2.00;72.70
74364;DHT22;62797;49.740;10.154;2023-12-07T00:54:35;2.00;73.00
74364;DHT22;62797;49.740;10.154;2023-12-07T00:57:01;2.00;72.80
74364;DHT22;62797;49.740;10.154;2023-12-07T00:59:27;2.00;72.60
74364;DHT22;62797;49.740;10.154;2023-12-07T01:01:52;2.00;72.70
74364;DHT22;62797;49.740;10.154;2023-12-07T01:04:18;2.10;73.00
74364;DHT22;62797;49.740;10.154;2023-12-07T01:06:43;2.10;72.90
74364;DHT22;62797;49.740;10.154;2023-12-07T01:09:09;2.00;73.00
74364;DHT22;62797;49.740;10.154;2023-12-07T01:11:39;2.10;72.80
74364;DHT22;62797;49.740;10.154;2023-12-07T01:14:07;2.00;73.00
74364;DHT22;62797;49.740;10.154;2023-12-07T01:16:33;2.10;72.60
74364;DHT22;62797;49.740;10.154;2023-12-07T01:18:58;2.10;72.60
74364;DHT22;62797;49.740;10.154;2023-12-07T01:21:24;2.00;72.10
74364;DHT22;62797;49.740;10.154;2023-12-07T01:23:49;2.00;72.50
74364;DHT22;62797;49.740;10.154;2023-12-07T01:26:15;2.00;72.80
74364;DHT22;62797;49.740;10.154;2023-12-07T01:28:41;2.00;72.60
74364;DHT22;62797;49.740;10.154;2023-12-07T01:31:06;2.00;73.50
74364;DHT22;62797;49.740;10.154;2023-12-07T01:33:32;2.00;73.00
74364;DHT22;62797;49.740;10.154;2023-12-07T01:35:58;2.00;73.10
74364;DHT22;62797;49.740;10.154;2023-12-07T01:38:24;2.10;73.70
74364;DHT22;62797;49.740;10.154;2023-12-07T01:40:49;2.10;73.20
74364;DHT22;62797;49.740;10.154;2023-12-07T01:43:15;2.10;73.20
74364;DHT22;62797;49.740;10.154;2023-12-07T01:45:41;2.10;73.40
74364;DHT22;62797;49.740;10.154;2023-12-07T01:48:06;2.10;73.50
74364;DHT22;62797;49.740;10.154;2023-12-07T01:50:33;2.10;73.70
74364;DHT22;62797;49.740;10.154;2023-12-07T01:53:02;2.10;74.50
74364;DHT22;62797;49.740;10.154;2023-12-07T01:55:29;2.10;73.90
74364;DHT22;62797;49.740;10.154;2023-12-07T01:57:57;2.10;74.00
74364;DHT22;62797;49.740;10.154;2023-12-07T02:00:23;2.10;73.70
74364;DHT22;62797;49.740;10.154;2023-12-07T02:02:50;2.10;73.10
74364;DHT22;62797;49.740;10.154;2023-12-07T02:05:16;2.10;73.00
74364;DHT22;62797;49.740;10.154;2023-12-07T02:07:42;2.00;73.40
74364;DHT22;62797;49.740;10.154;2023-12-07T02:10:08;2.00;73.30
74364;DHT22;62797;49.740;10.154;2023-12-07T02:12:34;2.00;73.40
74364;DHT22;62797;49.740;10.154;2023-12-07T02:15:01;2.00;73.50
74364;DHT22;62797;49.740;10.154;2023-12-07T02:17:35;2.00;73.30
74364;DHT22;62797;49.740;10.154;2023-12-07T02:20:12;2.00;73.60
74364;DHT22;62797;49.740;10.154;2023-12-07T02:22:42;2.00;73.70
74364;DHT22;62797;49.740;10.154;2023-12-07T02:25:14;2.00;73.40
74364;DHT22;62797;49.740;10.154;2023-12-07T02:27:40;2.00;73.60
74364;DHT22;62797;49.740;10.154;2023-12-07T02:30:10;1.90;73.70
74364;DHT22;62797;49.740;10.154;2023-12-07T02:32:41;1.90;74.00
74364;DHT22;62797;49.740;10.154;2023-12-07T02:35:09;1.80;73.90
74364;DHT22;62797;49.740;10.154;2023-12-07T02:37:42;1.80;74.10
74364;DHT22;62797;49.740;10.154;2023-12-07T02:40:09;1.60;74.50
74364;DHT22;62797;49.740;10.154;2023-12-07T02:42:36;1.60;74.90
74364;DHT22;62797;49.740;10.154;2023-12-07T02:45:04;1.60;74.80
74364;DHT22;62797;49.740;10.154;2023-12-07T02:47:30;1.50;75.10
74364;DHT22;62797;49.740;10.154;2023-12-07T02:49:55;1.40;75.20
74364;DHT22;62797;49.740;10.154;2023-12-07T02:52:21;1.30;75.60
74364;DHT22;62797;49.740;10.154;2023-12-07T02:54:47;1.30;75.90
74364;DHT22;62797;49.740;10.154;2023-12-07T02:57:14;1.30;76.10
74364;DHT22;62797;49.740;10.154;2023-12-07T02:59:40;1.20;76.00
74364;DHT22;62797;49.740;10.154;2023-12-07T03:02:06;1.10;76.00
74364;DHT22;62797;49.740;10.154;2023-12-07T03:04:32;1.00;76.50
74364;DHT22;62797;49.740;10.154;2023-12-07T03:06:58;0.90;76.70
74364;DHT22;62797;49.740;10.154;2023-12-07T03:09:23;0.90;77.00
74364;DHT22;62797;49.740;10.154;2023-12-07T03:11:49;0.80;77.80
74364;DHT22;62797;49.740;10.154;2023-12-07T03:14:15;0.70;77.90
74364;DHT22;62797;49.740;10.154;2023-12-07T03:16:41;0.70;78.50
74364;DHT22;62797;49.740;10.154;2023-12-07T03:19:06;0.60;78.30
74364;DHT22;62797;49.740;10.154;2023-12-07T03:21:32;0.60;78.80
74364;DHT22;62797;49.740;10.154;2023-12-07T03:23:57;0.50;78.60
74364;DHT22;62797;49.740;10.154;2023-12-07T03:26:25;0.50;79.10
74364;DHT22;62797;49.740;10.154;2023-12-07T03:28:51;0.50;79.50
74364;DHT22;62797;49.740;10.154;2023-12-07T03:31:17;0.50;79.40
74364;DHT22;62797;49.740;10.154;2023-12-07T03:33:42;0.40;79.50
74364;DHT22;62797;49.740;10.154;2023-12-07T03:36:11;0.30;80.10
74364;DHT22;62797;49.740;10.154;2023-12-07T03:38:37;0.30;80.30
74364;DHT22;62797;49.740;10.154;2023-12-07T03:41:03;0.10;81.00
74364;DHT22;62797;49.740;10.154;2023-12-07T03:43:29;0.30;80.80
74364;DHT22;62797;49.740;10.154;2023-12-07T03:45:55;0.20;80.70
74364;DHT22;62797;49.740;10.154;2023-12-07T03:48:20;0.10;80.80
74364;DHT22;62797;49.740;10.154;2023-12-07T03:50:46;0.00;80.30
74364;DHT22;62797;49.740;10.154;2023-12-07T03:53:11;0.00;81.20
74364;DHT22;62797;49.740;10.154;2023-12-07T03:55:38;0.00;80.50
74364;DHT22;62797;49.740;10.154;2023-12-07T03:58:04;0.00;80.60
74364;DHT22;62797;49.740;10.154;2023-12-07T04:00:31;0.00;80.50
74364;DHT22;62797;49.740;10.154;2023-12-07T04:02:57;0.00;80.30
74364;DHT22;62797;49.740;10.154;2023-12-07T04:05:23;-0.10;80.60
74364;DHT22;62797;49.740;10.154;2023-12-07T04:07:49;-0.10;80.20
74364;DHT22;62797;49.740;10.154;2023-12-07T04:10:15;-0.20;80.20
74364;DHT22;62797;49.740;10.154;2023-12-07T04:12:40;-0.30;79.80
74364;DHT22;62797;49.740;10.154;2023-12-07T04:15:06;-0.50;79.80
74364;DHT22;62797;49.740;10.154;2023-12-07T04:17:32;-0.50;80.60
74364;DHT22;62797;49.740;10.154;2023-12-07T04:19:58;-0.60;80.90
74364;DHT22;62797;49.740;10.154;2023-12-07T04:22:23;-0.70;81.20
74364;DHT22;62797;49.740;10.154;2023-12-07T04:24:49;-0.60;82.00
74364;DHT22;62797;49.740;10.154;2023-12-07T04:27:15;-0.60;81.50
74364;DHT22;62797;49.740;10.154;2023-12-07T04:29:41;-0.60;81.60
74364;DHT22;62797;49.740;10.154;2023-12-07T04:32:07;-0.70;81.30
74364;DHT22;62797;49.740;10.154;2023-12-07T04:34:33;-0.70;81.20
74364;DHT22;62797;49.740;10.154;2023-12-07T04:36:59;-0.60;81.10
74364;DHT22;62797;49.740;10.154;2023-12-07T04:39:25;-0.60;81.30
74364;DHT22;62797;49.740;10.154;2023-12-07T04:41:51;-0.70;80.60
74364;DHT22;62797;49.740;10.154;2023-12-07T04:44:16;-0.70;81.30
74364;DHT22;62797;49.740;10.154;2023-12-07T04:46:43;-0.70;81.40
74364;DHT22;62797;49.740;10.154;2023-12-07T04:49:08;-0.70;81.30
74364;DHT22;62797;49.740;10.154;2023-12-07T04:51:34;-0.70;81.20
74364;DHT22;62797;49.740;10.154;2023-12-07T04:54:00;-0.90;80.90
74364;DHT22;62797;49.740;10.154;2023-12-07T04:56:25;-0.90;81.20
74364;DHT22;62797;49.740;10.154;2023-12-07T04:58:51;-0.90;81.80
74364;DHT22;62797;49.740;10.154;2023-12-07T05:01:17;-0.90;81.60
74364;DHT22;62797;49.740;10.154;2023-12-07T05:03:45;-0.90;81.80
74364;DHT22;62797;49.740;10.154;2023-12-07T05:06:10;-0.90;81.70
74364;DHT22;62797;49.740;10.154;2023-12-07T05:08:38;-0.90;81.90
74364;DHT22;62797;49.740;10.154;2023-12-07T05:11:04;-0.90;81.60
74364;DHT22;62797;49.740;10.154;2023-12-07T05:13:30;-0.90;81.60
74364;DHT22;62797;49.740;10.154;2023-12-07T05:15:56;-0.90;81.20
74364;DHT22;62797;49.740;10.154;2023-12-07T05:18:22;-1.00;81.10
74364;DHT22;62797;49.740;10.154;2023-12-07T05:20:48;-0.90;81.70
74364;DHT22;62797;49.740;10.154;2023-12-07T05:23:14;-1.00;81.50
74364;DHT22;62797;49.740;10.154;2023-12-07T05:25:39;-1.00;81.40
74364;DHT22;62797;49.740;10.154;2023-12-07T05:28:05;-1.10;81.00
74364;DHT22;62797;49.740;10.154;2023-12-07T05:30:30;-1.00;81.80
74364;DHT22;62797;49.740;10.154;2023-12-07T05:32:56;-1.00;81.90
74364;DHT22;62797;49.740;10.154;2023-12-07T05:35:22;-0.90;81.70
74364;DHT22;62797;49.740;10.154;2023-12-07T05:37:49;-0.90;82.00
74364;DHT22;62797;49.740;10.154;2023-12-07T05:40:17;-0.90;81.80
74364;DHT22;62797;49.740;10.154;2023-12-07T05:42:44;-0.90;81.80
74364;DHT22;62797;49.740;10.154;2023-12-07T05:45:10;-0.90;81.30
74364;DHT22;62797;49.740;10.154;2023-12-07T05:47:35;-0.80;81.40
74364;DHT22;62797;49.740;10.154;2023-12-07T05:50:02;-0.80;81.70
74364;DHT22;62797;49.740;10.154;2023-12-07T05:52:29;-0.80;81.60
74364;DHT22;62797;49.740;10.154;2023-12-07T05:54:54;-0.80;80.90
74364;DHT22;62797;49.740;10.154;2023-12-07T05:57:20;-0.90;80.60
74364;DHT22;62797;49.740;10.154;2023-12-07T05:59:46;-1.00;80.60
74364;DHT22;62797;49.740;10.154;2023-12-07T06:02:11;-1.00;81.30
74364;DHT22;62797;49.740;10.154;2023-12-07T06:04:37;-1.00;81.70
74364;DHT22;62797;49.740;10.154;2023-12-07T06:07:03;-1.00;81.60
74364;DHT22;62797;49.740;10.154;2023-12-07T06:09:29;-1.10;81.40
74364;DHT22;62797;49.740;10.154;2023-12-07T06:11:55;-1.00;81.70
74364;DHT22;62797;49.740;10.154;2023-12-07T06:14:21;-1.10;81.50
74364;DHT22;62797;49.740;10.154;2023-12-07T06:16:48;-1.10;82.20
74364;DHT22;62797;49.740;10.154;2023-12-07T06:19:14;-1.00;82.10
74364;DHT22;62797;49.740;10.154;2023-12-07T06:21:40;-1.00;81.70
74364;DHT22;62797;49.740;10.154;2023-12-07T06:24:06;-1.10;81.50
74364;DHT22;62797;49.740;10.154;2023-12-07T06:26:32;-1.10;81.70
74364;DHT22;62797;49.740;10.154;2023-12-07T06:28:58;-1.10;81.80
74364;DHT22;62797;49.740;10.154;2023-12-07T06:31:24;-1.10;82.00
74364;DHT22;62797;49.740;10.154;2023-12-07T06:33:50;-1.10;82.00
74364;DHT22;62797;49.740;10.154;2023-12-07T06:36:22;-1.00;82.60
74364;DHT22;62797;49.740;10.154;2023-12-07T06:38:48;-0.80;83.00
74364;DHT22;62797;49.740;10.154;2023-12-07T06:41:14;-0.60;83.50
74364;DHT22;62797;49.740;10.154;2023-12-07T06:43:41;-0.50;83.50
74364;DHT22;62797;49.740;10.154;2023-12-07T06:46:07;-0.40;83.60
74364;DHT22;62797;49.740;10.154;2023-12-07T06:48:33;-0.30;83.70
74364;DHT22;62797;49.740;10.154;2023-12-07T06:50:59;-0.20;83.30
74364;DHT22;62797;49.740;10.154;2023-12-07T06:53:25;-0.10;83.40
74364;DHT22;62797;49.740;10.154;2023-12-07T06:55:50;-0.10;82.80
74364;DHT22;62797;49.740;10.154;2023-12-07T06:58:16;-0.20;82.80
74364;DHT22;62797;49.740;10.154;2023-12-07T07:00:42;-0.10;82.90
74364;DHT22;62797;49.740;10.154;2023-12-07T07:03:07;-0.10;82.90
74364;DHT22;62797;49.740;10.154;2023-12-07T07:05:33;0.00;82.80
74364;DHT22;62797;49.740;10.154;2023-12-07T07:07:58;-0.10;82.30
74364;DHT22;62797;49.740;10.154;2023-12-07T07:10:24;-0.10;82.80
74364;DHT22;62797;49.740;10.154;2023-12-07T07:12:50;0.00;83.10
74364;DHT22;62797;49.740;10.154;2023-12-07T07:15:15;0.00;83.30
74364;DHT22;62797;49.740;10.154;2023-12-07T07:17:41;0.00;82.80
74364;DHT22;62797;49.740;10.154;2023-12-07T07:20:07;0.10;83.00
74364;DHT22;62797;49.740;10.154;2023-12-07T07:22:35;0.10;82.60
74364;DHT22;62797;49.740;10.154;2023-12-07T07:25:03;0.10;82.50
74364;DHT22;62797;49.740;10.154;2023-12-07T07:27:30;0.10;82.30
74364;DHT22;62797;49.740;10.154;2023-12-07T07:29:55;0.10;82.30
74364;DHT22;62797;49.740;10.154;2023-12-07T07:32:21;0.20;82.20
74364;DHT22;62797;49.740;10.154;2023-12-07T07:34:46;0.20;82.00
74364;DHT22;62797;49.740;10.154;2023-12-07T07:37:12;0.10;81.90
74364;DHT22;62797;49.740;10.154;2023-12-07T07:39:38;0.20;81.60
74364;DHT22;62797;49.740;10.154;2023-12-07T07:42:03;0.20;81.50
74364;DHT22;62797;49.740;10.154;2023-12-07T07:44:30;0.20;81.20
74364;DHT22;62797;49.740;10.154;2023-12-07T07:46:55;0.10;81.50
74364;DHT22;62797;49.740;10.154;2023-12-07T07:49:22;0.10;81.80
74364;DHT22;62797;49.740;10.154;2023-12-07T07:51:48;0.10;82.10
74364;DHT22;62797;49.740;10.154;2023-12-07T07:54:13;0.10;81.80
74364;DHT22;62797;49.740;10.154;2023-12-07T07:56:39;0.20;81.50
74364;DHT22;62797;49.740;10.154;2023-12-07T07:59:05;0.10;81.10
74364;DHT22;62797;49.740;10.154;2023-12-07T08:01:32;0.10;82.20
74364;DHT22;62797;49.740;10.154;2023-12-07T08:03:58;0.10;81.40
74364;DHT22;62797;49.740;10.154;2023-12-07T08:06:24;0.10;81.40
74364;DHT22;62797;49.740;10.154;2023-12-07T08:08:49;0.10;81.30
74364;DHT22;62797;49.740;10.154;2023-12-07T08:11:15;0.10;81.40
74364;DHT22;62797;49.740;10.154;2023-12-07T08:13:43;0.10;81.50
74364;DHT22;62797;49.740;10.154;2023-12-07T08:16:09;0.10;81.30
74364;DHT22;62797;49.740;10.154;2023-12-07T08:18:35;0.00;81.50
74364;DHT22;62797;49.740;10.154;2023-12-07T08:21:01;0.10;81.90
74364;DHT22;62797;49.740;10.154;2023-12-07T08:23:27;0.10;81.50
74364;DHT22;62797;49.740;10.154;2023-12-07T08:25:53;0.10;81.90
74364;DHT22;62797;49.740;10.154;2023-12-07T08:28:21;0.20;82.10
74364;DHT22;62797;49.740;10.154;2023-12-07T08:30:46;0.20;82.00
74364;DHT22;62797;49.740;10.154;2023-12-07T08:33:12;0.20;82.20
74364;DHT22;62797;49.740;10.154;2023-12-07T08:35:37;0.30;82.00
74364;DHT22;62797;49.740;10.154;2023-12-07T08:38:03;0.30;81.80
74364;DHT22;62797;49.740;10.154;2023-12-07T08:40:30;0.30;81.90
74364;DHT22;62797;49.740;10.154;2023-12-07T08:42:55;0.30;81.80
74364;DHT22;62797;49.740;10.154;2023-12-07T08:45:21;0.30;81.80
74364;DHT22;62797;49.740;10.154;2023-12-07T08:47:47;0.40;82.40
74364;DHT22;62797;49.740;10.154;2023-12-07T08:50:13;0.40;81.00
74364;DHT22;62797;49.740;10.154;2023-12-07T08:52:39;0.40;81.30
74364;DHT22;62797;49.740;10.154;2023-12-07T08:55:04;0.50;81.70
74364;DHT22;62797;49.740;10.154;2023-12-07T08:57:30;0.50;81.40
74364;DHT22;62797;49.740;10.154;2023-12-07T08:59:56;0.50;81.40
74364;DHT22;62797;49.740;10.154;2023-12-07T09:02:22;0.40;81.10
74364;DHT22;62797;49.740;10.154;2023-12-07T09:04:48;0.40;81.40
74364;DHT22;62797;49.740;10.154;2023-12-07T09:07:18;0.40;81.00
74364;DHT22;62797;49.740;10.154;2023-12-07T09:09:44;0.40;81.50
74364;DHT22;62797;49.740;10.154;2023-12-07T09:12:13;0.50;81.50
74364;DHT22;62797;49.740;10.154;2023-12-07T09:14:40;0.40;80.70
74364;DHT22;62797;49.740;10.154;2023-12-07T09:17:05;0.40;80.80
74364;DHT22;62797;49.740;10.154;2023-12-07T09:19:31;0.40;81.00
74364;DHT22;62797;49.740;10.154;2023-12-07T09:21:57;0.40;81.30
74364;DHT22;62797;49.740;10.154;2023-12-07T09:24:24;0.40;81.30
74364;DHT22;62797;49.740;10.154;2023-12-07T09:26:53;0.40;81.50
74364;DHT22;62797;49.740;10.154;2023-12-07T09:29:18;0.60;81.40
74364;DHT22;62797;49.740;10.154;2023-12-07T09:31:44;0.60;80.90
74364;DHT22;62797;49.740;10.154;2023-12-07T09:34:10;0.60;80.90
74364;DHT22;62797;49.740;10.154;2023-12-07T09:36:37;0.50;80.70
74364;DHT22;62797;49.740;10.154;2023-12-07T09:39:03;0.60;81.20
74364;DHT22;62797;49.740;10.154;2023-12-07T09:41:29;0.60;81.10
74364;DHT22;62797;49.740;10.154;2023-12-07T09:43:55;0.60;81.30
74364;DHT22;62797;49.740;10.154;2023-12-07T09:46:20;0.60;81.40
74364;DHT22;62797;49.740;10.154;2023-12-07T09:48:49;0.70;81.80
74364;DHT22;62797;49.740;10.154;2023-12-07T09:51:18;0.80;82.00
74364;DHT22;62797;49.740;10.154;2023-12-07T09:53:45;0.80;81.70
74364;DHT22;62797;49.740;10.154;2023-12-07T09:56:15;0.80;81.70
74364;DHT22;62797;49.740;10.154;2023-12-07T09:58:40;0.80;81.70
74364;DHT22;62797;49.740;10.154;2023-12-07T10:01:07;0.90;81.80
74364;DHT22;62797;49.740;10.154;2023-12-07T10:03:33;0.90;81.70
74364;DHT22;62797;49.740;10.154;2023-12-07T10:05:59;0.90;81.80
74364;DHT22;62797;49.740;10.154;2023-12-07T10:08:26;0.90;82.10
74364;DHT22;62797;49.740;10.154;2023-12-07T10:11:02;1.00;81.90
74364;DHT22;62797;49.740;10.154;2023-12-07T10:13:30;0.90;81.20
74364;DHT22;62797;49.740;10.154;2023-12-07T10:16:11;0.90;81.40
74364;DHT22;62797;49.740;10.154;2023-12-07T10:18:40;1.00;82.00
74364;DHT22;62797;49.740;10.154;2023-12-07T10:21:08;1.00;82.10
74364;DHT22;62797;49.740;10.154;2023-12-07T10:23:39;1.10;82.50
74364;DHT22;62797;49.740;10.154;2023-12-07T10:26:06;1.20;82.30
74364;DHT22;62797;49.740;10.154;2023-12-07T10:28:34;1.30;82.70
74364;DHT22;62797;49.740;10.154;2023-12-07T10:31:01;1.30;81.70
74364;DHT22;62797;49.740;10.154;2023-12-07T10:33:27;1.40;80.60
74364;DHT22;62797;49.740;10.154;2023-12-07T10:35:52;1.40;80.70
74364;DHT22;62797;49.740;10.154;2023-12-07T10:38:18;1.50;80.60
74364;DHT22;62797;49.740;10.154;2023-12-07T10:40:46;1.50;79.50
74364;DHT22;62797;49.740;10.154;2023-12-07T10:43:12;1.40;79.70
74364;DHT22;62797;49.740;10.154;2023-12-07T10:45:40;1.50;80.00
74364;DHT22;62797;49.740;10.154;2023-12-07T10:48:09;1.50;80.80
74364;DHT22;62797;49.740;10.154;2023-12-07T10:50:42;1.60;78.30
74364;DHT22;62797;49.740;10.154;2023-12-07T10:53:12;1.50;78.20
74364;DHT22;62797;49.740;10.154;2023-12-07T10:55:47;1.50;78.30
74364;DHT22;62797;49.740;10.154;2023-12-07T10:58:14;1.40;78.10
74364;DHT22;62797;49.740;10.154;2023-12-07T11:00:44;1.50;78.10
74364;DHT22;62797;49.740;10.154;2023-12-07T11:03:14;1.40;77.70
74364;DHT22;62797;49.740;10.154;2023-12-07T11:05:42;1.50;78.10
74364;DHT22;62797;49.740;10.154;2023-12-07T11:08:11;1.50;78.40
74364;DHT22;62797;49.740;10.154;2023-12-07T11:10:45;1.60;78.00
74364;DHT22;62797;49.740;10.154;2023-12-07T11:13:20;1.70;78.80
74364;DHT22;62797;49.740;10.154;2023-12-07T11:15:48;1.80;76.30
74364;DHT22;62797;49.740;10.154;2023-12-07T11:18:13;1.70;75.40
74364;DHT22;62797;49.740;10.154;2023-12-07T11:20:44;1.70;74.90
74364;DHT22;62797;49.740;10.154;2023-12-07T11:23:11;1.70;75.00
74364;DHT22;62797;49.740;10.154;2023-12-07T11:25:37;1.60;75.50
74364;DHT22;62797;49.740;10.154;2023-12-07T11:28:04;1.80;76.00
74364;DHT22;62797;49.740;10.154;2023-12-07T11:30:32;1.80;75.50
74364;DHT22;62797;49.740;10.154;2023-12-07T11:32:58;1.80;74.20
74364;DHT22;62797;49.740;10.154;2023-12-07T11:35:24;1.70;74.50
74364;DHT22;62797;49.740;10.154;2023-12-07T11:38:06;1.70;74.90
74364;DHT22;62797;49.740;10.154;2023-12-07T11:40:36;1.70;74.50
74364;DHT22;62797;49.740;10.154;2023-12-07T11:43:02;1.70;75.00
74364;DHT22;62797;49.740;10.154;2023-12-07T11:45:56;1.80;74.70
74364;DHT22;62797;49.740;10.154;2023-12-07T11:48:22;1.90;75.00
74364;DHT22;62797;49.740;10.154;2023-12-07T11:51:05;1.90;74.30
74364;DHT22;62797;49.740;10.154;2023-12-07T11:53:32;1.90;73.40
74364;DHT22;62797;49.740;10.154;2023-12-07T11:55:59;1.90;74.30
74364;DHT22;62797;49.740;10.154;2023-12-07T11:58:29;1.90;74.60
74364;DHT22;62797;49.740;10.154;2023-12-07T12:00:56;1.90;74.80
74364;DHT22;62797;49.740;10.154;2023-12-07T12:03:26;2.10;74.60
74364;DHT22;62797;49.740;10.154;2023-12-07T12:05:53;2.10;73.70
74364;DHT22;62797;49.740;10.154;2023-12-07T12:08:20;2.10;74.70
74364;DHT22;62797;49.740;10.154;2023-12-07T12:10:46;2.20;75.00
74364;DHT22;62797;49.740;10.154;2023-12-07T12:13:13;2.50;74.70
74364;DHT22;62797;49.740;10.154;2023-12-07T12:15:41;2.60;72.50
74364;DHT22;62797;49.740;10.154;2023-12-07T12:18:16;2.50;72.70
74364;DHT22;62797;49.740;10.154;2023-12-07T12:20:50;2.50;72.60
74364;DHT22;62797;49.740;10.154;2023-12-07T12:23:16;2.50;72.50
74364;DHT22;62797;49.740;10.154;2023-12-07T12:25:42;2.50;72.30
74364;DHT22;62797;49.740;10.154;2023-12-07T12:28:08;2.40;71.80
74364;DHT22;62797;49.740;10.154;2023-12-07T12:30:35;2.40;72.00
74364;DHT22;62797;49.740;10.154;2023-12-07T12:33:01;2.40;71.80
74364;DHT22;62797;49.740;10.154;2023-12-07T12:35:28;2.40;71.00
74364;DHT22;62797;49.740;10.154;2023-12-07T12:37:54;2.20;71.00
74364;DHT22;62797;49.740;10.154;2023-12-07T12:40:23;2.30;73.00
74364;DHT22;62797;49.740;10.154;2023-12-07T12:42:51;2.40;73.30
74364;DHT22;62797;49.740;10.154;2023-12-07T12:45:17;2.50;73.20
74364;DHT22;62797;49.740;10.154;2023-12-07T12:47:47;2.40;71.60
74364;DHT22;62797;49.740;10.154;2023-12-07T12:50:33;2.30;71.70
74364;DHT22;62797;49.740;10.154;2023-12-07T12:52:59;2.40;72.20
74364;DHT22;62797;49.740;10.154;2023-12-07T12:55:26;2.40;72.20
74364;DHT22;62797;49.740;10.154;2023-12-07T12:57:52;2.40;71.70
74364;DHT22;62797;49.740;10.154;2023-12-07T13:00:18;2.30;71.00
74364;DHT22;62797;49.740;10.154;2023-12-07T13:02:43;2.30;71.90
74364;DHT22;62797;49.740;10.154;2023-12-07T13:05:09;2.40;72.90
74364;DHT22;62797;49.740;10.154;2023-12-07T13:07:35;2.40;71.90
74364;DHT22;62797;49.740;10.154;2023-12-07T13:10:01;2.50;71.70
74364;DHT22;62797;49.740;10.154;2023-12-07T13:12:27;2.50;72.50
74364;DHT22;62797;49.740;10.154;2023-12-07T13:14:54;2.60;72.90
74364;DHT22;62797;49.740;10.154;2023-12-07T13:17:20;2.60;72.10
74364;DHT22;62797;49.740;10.154;2023-12-07T13:19:46;2.60;71.60
74364;DHT22;62797;49.740;10.154;2023-12-07T13:22:11;2.60;69.80
74364;DHT22;62797;49.740;10.154;2023-12-07T13:24:37;2.40;70.40
74364;DHT22;62797;49.740;10.154;2023-12-07T13:27:03;2.50;72.20
74364;DHT22;62797;49.740;10.154;2023-12-07T13:29:29;2.70;73.60
74364;DHT22;62797;49.740;10.154;2023-12-07T13:31:55;2.80;73.30
74364;DHT22;62797;49.740;10.154;2023-12-07T13:34:20;2.70;70.80
74364;DHT22;62797;49.740;10.154;2023-12-07T13:36:46;2.50;69.20
74364;DHT22;62797;49.740;10.154;2023-12-07T13:39:14;2.50;71.00
74364;DHT22;62797;49.740;10.154;2023-12-07T13:41:40;2.50;70.40
74364;DHT22;62797;49.740;10.154;2023-12-07T13:44:06;2.50;71.40
74364;DHT22;62797;49.740;10.154;2023-12-07T13:46:32;2.40;70.00
74364;DHT22;62797;49.740;10.154;2023-12-07T13:48:58;2.40;72.20
74364;DHT22;62797;49.740;10.154;2023-12-07T13:51:24;2.60;73.10
74364;DHT22;62797;49.740;10.154;2023-12-07T13:53:50;2.80;71.90
74364;DHT22;62797;49.740;10.154;2023-12-07T13:56:21;2.70;70.40
74364;DHT22;62797;49.740;10.154;2023-12-07T13:58:46;2.70;69.80
74364;DHT22;62797;49.740;10.154;2023-12-07T14:01:12;2.70;69.80
74364;DHT22;62797;49.740;10.154;2023-12-07T14:03:37;2.50;70.00
74364;DHT22;62797;49.740;10.154;2023-12-07T14:06:03;2.30;69.60
74364;DHT22;62797;49.740;10.154;2023-12-07T14:08:29;2.30;70.70
74364;DHT22;62797;49.740;10.154;2023-12-07T14:10:56;2.30;70.10
74364;DHT22;62797;49.740;10.154;2023-12-07T14:13:22;2.30;70.70
74364;DHT22;62797;49.740;10.154;2023-12-07T14:15:49;2.30;71.10
74364;DHT22;62797;49.740;10.154;2023-12-07T14:18:15;2.30;71.40
74364;DHT22;62797;49.740;10.154;2023-12-07T14:20:41;2.30;71.50
74364;DHT22;62797;49.740;10.154;2023-12-07T14:23:08;2.30;71.70
74364;DHT22;62797;49.740;10.154;2023-12-07T14:25:33;2.30;70.50
74364;DHT22;62797;49.740;10.154;2023-12-07T14:27:59;2.20;70.80
74364;DHT22;62797;49.740;10.154;2023-12-07T14:30:24;2.10;71.40
74364;DHT22;62797;49.740;10.154;2023-12-07T14:32:50;2.10;71.30
74364;DHT22;62797;49.740;10.154;2023-12-07T14:35:19;2.10;71.70
74364;DHT22;62797;49.740;10.154;2023-12-07T14:37:45;2.00;71.90
74364;DHT22;62797;49.740;10.154;2023-12-07T14:40:11;2.00;71.60
74364;DHT22;62797;49.740;10.154;2023-12-07T14:42:38;2.00;72.00
74364;DHT22;62797;49.740;10.154;2023-12-07T14:45:05;1.90;71.90
74364;DHT22;62797;49.740;10.154;2023-12-07T14:47:30;1.90;72.20
74364;DHT22;62797;49.740;10.154;2023-12-07T14:49:56;1.80;72.10
74364;DHT22;62797;49.740;10.154;2023-12-07T14:52:22;1.70;72.30
74364;DHT22;62797;49.740;10.154;2023-12-07T14:54:49;1.60;72.50
74364;DHT22;62797;49.740;10.154;2023-12-07T14:57:15;1.60;73.30
74364;DHT22;62797;49.740;10.154;2023-12-07T14:59:41;1.50;73.20
74364;DHT22;62797;49.740;10.154;2023-12-07T15:02:07;1.40;73.40
74364;DHT22;62797;49.740;10.154;2023-12-07T15:04:33;1.30;73.60
74364;DHT22;62797;49.740;10.154;2023-12-07T15:07:01;1.30;74.00
74364;DHT22;62797;49.740;10.154;2023-12-07T15:09:28;1.20;74.30
74364;DHT22;62797;49.740;10.154;2023-12-07T15:11:55;1.20;74.50
74364;DHT22;62797;49.740;10.154;2023-12-07T15:14:21;1.20;74.50
74364;DHT22;62797;49.740;10.154;2023-12-07T15:16:47;1.20;74.80
74364;DHT22;62797;49.740;10.154;2023-12-07T15:19:14;1.10;75.40
74364;DHT22;62797;49.740;10.154;2023-12-07T15:21:39;1.10;75.80
74364;DHT22;62797;49.740;10.154;2023-12-07T15:24:07;1.10;75.40